Global Endeavor — 3EOJ9 — position and weather

sailwx.info

Track history (hours):
 
Tides and Currents Weather Stations Pressure Air Temp Water Temp Dewpoint Dewpoint Depression Visibility Wind Speed Wind Dir Waves Ship Positions

Global Endeavor

Last reported at 2016-Apr-28 08:33 UTC. Time now 2016-Apr-29 17:47 UTC.
Position N 46°12' W 125°29'.

Length 175 m; draft 10 m.

Type: Cargo ship. MMSI: 356619000.

Date/timePositionNaut miles runAvg speedWind from/ knotsBaromVisibWave heightAir tempDewpointWater temp
2016-Apr-28 08:33N 46°12' W 125°29'9 8.9
2016-Apr-28 07:33N 46°12' W 125°16'9 9.2
2016-Apr-28 06:33N 46°12' W 125°03'9 9.5
2016-Apr-28 05:33N 46°11' W 124°50'9 9.2
2016-Apr-28 04:33N 46°13' W 124°36'9 9.1
2016-Apr-28 03:33N 46°13' W 124°23'9 9.4
2016-Apr-28 02:33N 46°11' W 124°10'9 8.6
2016-Apr-28 01:34N 46°13' W 123°58'8 8.2
2016-Apr-28 00:33N 46°13' W 123°46'1211.6
2016-Apr-27 23:34N 46°16' W 123°30'1010.0
2016-Apr-27 22:34N 46°09' W 123°21'1211.9
2016-Apr-27 21:33N 46°09' W 123°04'5 5.0
2016-Apr-27 20:33N 46°07' W 122°58'0 0.0
2016-Apr-27 19:30N 46°07' W 122°58'0 0.0
2016-Apr-27 18:33N 46°07' W 122°58'0 0.0
2016-Apr-27 17:33N 46°07' W 122°58'0 0.0
2016-Apr-27 16:33N 46°07' W 122°58'0 0.0
2016-Apr-27 15:33N 46°07' W 122°58'0 0.0
2016-Apr-27 14:27N 46°07' W 122°58'0 0.0
2016-Apr-27 13:33N 46°07' W 122°58'0 0.0
2016-Apr-27 12:33N 46°07' W 122°58'0 0.0
2016-Apr-27 11:27N 46°07' W 122°58'0 0.0
2016-Apr-27 10:33N 46°07' W 122°58'0 0.0
2016-Apr-27 09:30N 46°07' W 122°58'0 0.0
2016-Apr-27 08:33N 46°07' W 122°58'0 0.0
2016-Apr-27 07:33N 46°07' W 122°58'0 0.0
2016-Apr-27 06:33N 46°07' W 122°58'0 0.0
2016-Apr-27 05:33N 46°07' W 122°58'0 0.0
2016-Apr-27 04:33N 46°07' W 122°58'0 0.0
2016-Apr-27 03:33N 46°07' W 122°58'0 0.0
2016-Apr-27 02:33N 46°07' W 122°58'0 0.0
2016-Apr-27 01:33N 46°07' W 122°58'0 0.0
2016-Apr-27 00:21N 46°07' W 122°58'0 0.1
2016-Apr-26 23:33N 46°07' W 122°58'0 0.0
2016-Apr-26 22:33N 46°07' W 122°58'0 0.0
2016-Apr-26 21:33N 46°07' W 122°58'0 0.0
2016-Apr-26 20:33N 46°07' W 122°58'0 0.0
2016-Apr-26 19:33N 46°07' W 122°58'0 0.0
2016-Apr-26 18:33N 46°07' W 122°58'0 0.0
2016-Apr-26 16:24N 46°07' W 122°58'0 0.0
2016-Apr-26 15:27N 46°07' W 122°58'0 0.0
2016-Apr-26 14:33N 46°07' W 122°58'0 0.0
2016-Apr-26 13:33N 46°07' W 122°58'0 0.0
2016-Apr-26 12:30N 46°07' W 122°58'0 0.0
2016-Apr-26 11:33N 46°07' W 122°58'0 0.0
2016-Apr-26 10:30N 46°07' W 122°58'0 0.0
2016-Apr-26 09:30N 46°07' W 122°58'0 0.0
2016-Apr-26 08:33N 46°07' W 122°58'0 0.0
2016-Apr-26 07:33N 46°07' W 122°58'0 0.0
2016-Apr-26 06:33N 46°07' W 122°58'0 0.0
2016-Apr-26 05:30N 46°07' W 122°58'0 0.0
2016-Apr-26 04:21N 46°07' W 122°58'0 0.0
2016-Apr-26 03:27N 46°07' W 122°58'0 0.0
2016-Apr-26 02:33N 46°07' W 122°58'0 0.0
2016-Apr-26 01:33N 46°07' W 122°58'0 0.0
2016-Apr-26 00:30N 46°07' W 122°58'0 0.0
2016-Apr-25 23:33N 46°07' W 122°58'0 0.0
2016-Apr-25 22:27N 46°07' W 122°58'0 0.0
2016-Apr-25 21:24N 46°07' W 122°58'0 0.0
2016-Apr-25 20:33N 46°07' W 122°58'0 0.0
2016-Apr-25 19:33N 46°07' W 122°58'0 0.0
2016-Apr-25 18:24N 46°07' W 122°58'0 0.0
2016-Apr-25 17:27N 46°07' W 122°58'0 0.0
2016-Apr-25 16:33N 46°07' W 122°58'0 0.0
2016-Apr-25 15:20N 46°07' W 122°58'0 0.1
2016-Apr-25 14:33N 46°07' W 122°58'0 0.0
2016-Apr-25 13:33N 46°07' W 122°58'0 0.0
2016-Apr-25 12:33N 46°07' W 122°58'0 0.0
2016-Apr-25 11:33N 46°07' W 122°58'0 0.0
2016-Apr-25 10:30N 46°07' W 122°58'0 0.0
2016-Apr-25 09:33N 46°07' W 122°58'0 0.0
2016-Apr-25 08:33N 46°07' W 122°58'0 0.0
2016-Apr-25 07:33N 46°07' W 122°58'0 0.0
2016-Apr-25 06:21N 46°07' W 122°58'0 0.1
2016-Apr-25 05:33N 46°07' W 122°58'0 0.0
2016-Apr-25 04:33N 46°07' W 122°58'0 0.0
2016-Apr-25 03:27N 46°07' W 122°58'0 0.0
2016-Apr-25 02:30N 46°07' W 122°58'0 0.0
2016-Apr-25 01:33N 46°07' W 122°58'0 0.0
2016-Apr-25 00:27N 46°07' W 122°58'0 0.0
2016-Apr-24 23:30N 46°07' W 122°58'0 0.0
2016-Apr-24 22:27N 46°07' W 122°58'0 0.0
2016-Apr-24 21:33N 46°07' W 122°58'0 0.0
2016-Apr-24 20:18N 46°07' W 122°58'0 0.0
2016-Apr-24 19:27N 46°07' W 122°58'0 0.0
2016-Apr-24 18:30N 46°07' W 122°58'0 0.0
2016-Apr-24 17:33N 46°07' W 122°58'0 0.0
2016-Apr-24 16:30N 46°07' W 122°58'0 0.0
2016-Apr-24 15:33N 46°07' W 122°58'0 0.0
2016-Apr-24 14:33N 46°07' W 122°58'0 0.0
2016-Apr-24 13:24N 46°07' W 122°58'0 0.0
2016-Apr-24 12:30N 46°07' W 122°58'0 0.0
2016-Apr-24 11:33N 46°07' W 122°58'0 0.0
2016-Apr-24 10:30N 46°07' W 122°58'0 0.0
2016-Apr-24 09:33N 46°07' W 122°58'0 0.0
2016-Apr-24 08:18N 46°07' W 122°58'0 0.0
2016-Apr-24 07:27N 46°07' W 122°58'0 0.0
2016-Apr-24 06:33N 46°07' W 122°58'0 0.0
2016-Apr-24 05:24N 46°07' W 122°58'0 0.0
2016-Apr-24 04:30N 46°07' W 122°58'0 0.0
2016-Apr-24 03:30N 46°07' W 122°58'0 0.0
2016-Apr-24 02:33N 46°07' W 122°58'0 0.0
2016-Apr-24 01:30N 46°07' W 122°58'0 0.0
2016-Apr-24 00:33N 46°07' W 122°58'0 0.0
2016-Apr-23 23:30N 46°07' W 122°58'0 0.0
2016-Apr-23 22:27N 46°07' W 122°58'0 0.0
2016-Apr-23 21:33N 46°07' W 122°58'0 0.0
2016-Apr-23 20:30N 46°07' W 122°58'0 0.0
2016-Apr-23 19:30N 46°07' W 122°58'0 0.0
2016-Apr-23 18:33N 46°07' W 122°58'0 0.0
2016-Apr-23 17:30N 46°07' W 122°58'0 0.0
2016-Apr-23 16:33N 46°07' W 122°58'0 0.0
2016-Apr-23 15:30N 46°07' W 122°58'0 0.0
2016-Apr-23 14:33N 46°07' W 122°58'0 0.0
2016-Apr-23 12:24N 46°07' W 122°58'0 0.5
2016-Apr-23 11:30N 46°07' W 122°58'0 0.0
2016-Apr-23 10:33N 46°07' W 122°58'0 0.0
2016-Apr-23 09:30N 46°07' W 122°58'0 0.0
2016-Apr-23 08:33N 46°07' W 122°58'0 0.0
2016-Apr-23 07:33N 46°07' W 122°58'0 0.0
2016-Apr-23 06:33N 46°07' W 122°58'0 0.0
2016-Apr-23 05:33N 46°07' W 122°58'0 0.0
2016-Apr-23 04:27N 46°07' W 122°58'0 0.0
2016-Apr-23 03:33N 46°07' W 122°58'0 0.0
2016-Apr-23 02:33N 46°07' W 122°58'0 0.0
2016-Apr-23 01:27N 46°07' W 122°58'0 0.0
2016-Apr-23 00:27N 46°07' W 122°58'0 0.0
2016-Apr-22 23:33N 46°07' W 122°58'0 0.0
2016-Apr-22 22:33N 46°07' W 122°58'0 0.0
2016-Apr-22 21:33N 46°07' W 122°58'0 0.0
2016-Apr-22 20:33N 46°07' W 122°58'0 0.0
2016-Apr-22 19:30N 46°07' W 122°58'0 0.0
2016-Apr-22 18:27N 46°07' W 122°58'0 0.0
2016-Apr-22 17:33N 46°07' W 122°58'0 0.0
2016-Apr-22 16:27N 46°07' W 122°58'0 0.0
2016-Apr-22 15:33N 46°07' W 122°58'0 0.0
2016-Apr-22 14:33N 46°07' W 122°58'0 0.0
2016-Apr-22 13:33N 46°07' W 122°58'0 0.0
2016-Apr-22 12:27N 46°07' W 122°58'0 0.0
2016-Apr-22 11:24N 46°07' W 122°58'0 0.0
2016-Apr-22 10:33N 46°07' W 122°58'0 0.0
2016-Apr-22 09:33N 46°07' W 122°58'0 0.0
2016-Apr-22 08:27N 46°07' W 122°58'0 0.0
2016-Apr-22 07:30N 46°07' W 122°58'0 0.0
2016-Apr-22 06:30N 46°07' W 122°58'0 0.0
2016-Apr-22 05:27N 46°07' W 122°58'0 0.0
2016-Apr-22 04:33N 46°07' W 122°58'0 0.0
2016-Apr-22 03:27N 46°07' W 122°58'0 0.0
2016-Apr-22 02:33N 46°07' W 122°58'0 0.0
2016-Apr-22 01:30N 46°07' W 122°58'0 0.0
2016-Apr-22 00:33N 46°07' W 122°58'0 0.0
2016-Apr-21 23:33N 46°07' W 122°58'0 0.0
2016-Apr-21 22:33N 46°07' W 122°58'0 0.0
2016-Apr-21 21:30N 46°07' W 122°58'0 0.0
2016-Apr-21 20:33N 46°07' W 122°58'0 0.0
2016-Apr-21 19:33N 46°07' W 122°58'0 0.0
2016-Apr-21 18:33N 46°07' W 122°58'0 0.0
2016-Apr-21 17:15N 46°07' W 122°58'0 0.0
2016-Apr-21 16:33N 46°07' W 122°58'0 0.0
2016-Apr-21 15:27N 46°07' W 122°58'0 0.0
2016-Apr-21 14:27N 46°07' W 122°58'0 0.0
2016-Apr-21 13:33N 46°07' W 122°58'0 0.0
2016-Apr-21 12:33N 46°07' W 122°58'0 0.0
2016-Apr-21 11:33N 46°07' W 122°58'0 0.0
2016-Apr-21 10:33N 46°07' W 122°58'0 0.0
2016-Apr-21 09:27N 46°07' W 122°58'0 0.0
2016-Apr-21 08:33N 46°07' W 122°58'0 0.0
2016-Apr-21 07:33N 46°07' W 122°58'0 0.0
2016-Apr-21 06:33N 46°07' W 122°58'0 0.0
2016-Apr-21 05:33N 46°07' W 122°58'0 0.0
2016-Apr-21 04:33N 46°07' W 122°58'0 0.0
2016-Apr-21 03:33N 46°07' W 122°58'0 0.0
2016-Apr-21 02:33N 46°07' W 122°58'0 0.0
2016-Apr-21 01:33N 46°07' W 122°58'0 0.0
2016-Apr-21 00:30N 46°07' W 122°58'0 0.0
2016-Apr-20 23:33N 46°07' W 122°58'0 0.0
2016-Apr-20 22:33N 46°07' W 122°58'0 0.0
2016-Apr-20 21:33N 46°07' W 122°58'0 0.0
2016-Apr-20 20:27N 46°07' W 122°58'0 0.0
2016-Apr-20 19:33N 46°07' W 122°58'0 0.0
2016-Apr-20 18:33N 46°07' W 122°58'0 0.0
2016-Apr-20 17:33N 46°07' W 122°58'0 0.0
2016-Apr-20 16:33N 46°07' W 122°58'0 0.0
2016-Apr-20 15:33N 46°07' W 122°58'0 0.0
2016-Apr-20 14:33N 46°07' W 122°58'0 0.0
2016-Apr-20 13:33N 46°07' W 122°58'0 0.0
2016-Apr-20 12:24N 46°07' W 122°58'0 0.0
2016-Apr-20 11:33N 46°07' W 122°58'0 0.0
2016-Apr-20 09:27N 46°07' W 122°58'0 0.0
2016-Apr-20 08:33N 46°07' W 122°58'0 0.0
2016-Apr-20 07:33N 46°07' W 122°58'0 0.0
2016-Apr-20 06:12N 46°07' W 122°58'0 0.0
2016-Apr-20 05:33N 46°07' W 122°58'0 0.0
2016-Apr-20 04:27N 46°07' W 122°58'0 0.0
2016-Apr-20 03:30N 46°07' W 122°58'0 0.0
2016-Apr-20 02:33N 46°07' W 122°58'0 0.0
2016-Apr-20 01:27N 46°07' W 122°58'0 0.0
2016-Apr-20 00:33N 46°07' W 122°58'0 0.0
2016-Apr-19 23:30N 46°07' W 122°58'0 0.0
2016-Apr-19 22:33N 46°07' W 122°58'0 0.0
2016-Apr-19 21:27N 46°07' W 122°58'0 0.0
2016-Apr-19 20:33N 46°07' W 122°58'0 0.0
2016-Apr-19 19:33N 46°07' W 122°58'0 0.0
2016-Apr-19 18:33N 46°07' W 122°58'0 0.0
2016-Apr-19 17:33N 46°07' W 122°58'7 6.8
2016-Apr-19 16:33N 46°11' W 123°06'9 9.4
2016-Apr-19 15:33N 46°09' W 123°19'8 8.4
2016-Apr-19 14:34N 46°15' W 123°27'1110.6
2016-Apr-19 13:34N 46°15' W 123°42'10 9.7
2016-Apr-19 12:34N 46°12' W 123°55'8 8.4
2016-Apr-19 11:33N 46°14' W 124°07'1110.7
2016-Apr-19 10:33N 46°12' W 124°22'3 3.2
2016-Apr-19 09:33N 46°11' W 124°27'9 9.0
2016-Apr-19 08:33N 46°13' W 124°39'1110.8
2016-Apr-19 07:33N 46°11' W 124°54'1211.5
2016-Apr-19 06:33N 46°14' W 125°10'1111.1
2016-Apr-19 05:33N 46°14' W 125°26'7 7.2
2016-Apr-19 04:33N 46°11' W 125°36'1010.1
2016-Apr-19 03:33N 46°18' W 125°47'1211.5
2016-Apr-19 02:33N 46°13' W 126°01'1211.6
2016-Apr-19 01:33N 46°10' W 126°17'9 8.6
2016-Apr-19 00:33N 46°11' W 126°30'1311.6
2016-Apr-18 23:24N 46°12' W 126°49'2211.6
2016-Apr-18 21:30N 46°12' W 127°21'  
Track history (hours):
 
Tides and Currents Weather Stations Pressure Air Temp Water Temp Dewpoint Dewpoint Depression Visibility Wind Speed Wind Dir Waves Ship Positions

Global Endeavor

Last reported at 2016-Apr-28 08:33 UTC. Time now 2016-Apr-29 17:47 UTC.
Position N 46°12' W 125°29'.

Length 175 m; draft 10 m.

Type: Cargo ship. MMSI: 356619000.

Date/timePositionNaut miles runAvg speedWind from/ knotsBaromVisibWave heightAir tempDewpointWater temp
2016-Apr-28 08:33N 46°12' W 125°29'9 8.9
2016-Apr-28 07:33N 46°12' W 125°16'9 9.2
2016-Apr-28 06:33N 46°12' W 125°03'9 9.5
2016-Apr-28 05:33N 46°11' W 124°50'9 9.2
2016-Apr-28 04:33N 46°13' W 124°36'9 9.1
2016-Apr-28 03:33N 46°13' W 124°23'9 9.4
2016-Apr-28 02:33N 46°11' W 124°10'9 8.6
2016-Apr-28 01:34N 46°13' W 123°58'8 8.2
2016-Apr-28 00:33N 46°13' W 123°46'1211.6
2016-Apr-27 23:34N 46°16' W 123°30'1010.0
2016-Apr-27 22:34N 46°09' W 123°21'1211.9
2016-Apr-27 21:33N 46°09' W 123°04'5 5.0
2016-Apr-27 20:33N 46°07' W 122°58'0 0.0
2016-Apr-27 19:30N 46°07' W 122°58'0 0.0
2016-Apr-27 18:33N 46°07' W 122°58'0 0.0
2016-Apr-27 17:33N 46°07' W 122°58'0 0.0
2016-Apr-27 16:33N 46°07' W 122°58'0 0.0
2016-Apr-27 15:33N 46°07' W 122°58'0 0.0
2016-Apr-27 14:27N 46°07' W 122°58'0 0.0
2016-Apr-27 13:33N 46°07' W 122°58'0 0.0
2016-Apr-27 12:33N 46°07' W 122°58'0 0.0
2016-Apr-27 11:27N 46°07' W 122°58'0 0.0
2016-Apr-27 10:33N 46°07' W 122°58'0 0.0
2016-Apr-27 09:30N 46°07' W 122°58'0 0.0
2016-Apr-27 08:33N 46°07' W 122°58'0 0.0
2016-Apr-27 07:33N 46°07' W 122°58'0 0.0
2016-Apr-27 06:33N 46°07' W 122°58'0 0.0
2016-Apr-27 05:33N 46°07' W 122°58'0 0.0
2016-Apr-27 04:33N 46°07' W 122°58'0 0.0
2016-Apr-27 03:33N 46°07' W 122°58'0 0.0
2016-Apr-27 02:33N 46°07' W 122°58'0 0.0
2016-Apr-27 01:33N 46°07' W 122°58'0 0.0
2016-Apr-27 00:21N 46°07' W 122°58'0 0.1
2016-Apr-26 23:33N 46°07' W 122°58'0 0.0
2016-Apr-26 22:33N 46°07' W 122°58'0 0.0
2016-Apr-26 21:33N 46°07' W 122°58'0 0.0
2016-Apr-26 20:33N 46°07' W 122°58'0 0.0
2016-Apr-26 19:33N 46°07' W 122°58'0 0.0
2016-Apr-26 18:33N 46°07' W 122°58'0 0.0
2016-Apr-26 16:24N 46°07' W 122°58'0 0.0
2016-Apr-26 15:27N 46°07' W 122°58'0 0.0
2016-Apr-26 14:33N 46°07' W 122°58'0 0.0
2016-Apr-26 13:33N 46°07' W 122°58'0 0.0
2016-Apr-26 12:30N 46°07' W 122°58'0 0.0
2016-Apr-26 11:33N 46°07' W 122°58'0 0.0
2016-Apr-26 10:30N 46°07' W 122°58'0 0.0
2016-Apr-26 09:30N 46°07' W 122°58'0 0.0
2016-Apr-26 08:33N 46°07' W 122°58'0 0.0
2016-Apr-26 07:33N 46°07' W 122°58'0 0.0
2016-Apr-26 06:33N 46°07' W 122°58'0 0.0
2016-Apr-26 05:30N 46°07' W 122°58'0 0.0
2016-Apr-26 04:21N 46°07' W 122°58'0 0.0
2016-Apr-26 03:27N 46°07' W 122°58'0 0.0
2016-Apr-26 02:33N 46°07' W 122°58'0 0.0
2016-Apr-26 01:33N 46°07' W 122°58'0 0.0
2016-Apr-26 00:30N 46°07' W 122°58'0 0.0
2016-Apr-25 23:33N 46°07' W 122°58'0 0.0
2016-Apr-25 22:27N 46°07' W 122°58'0 0.0
2016-Apr-25 21:24N 46°07' W 122°58'0 0.0
2016-Apr-25 20:33N 46°07' W 122°58'0 0.0
2016-Apr-25 19:33N 46°07' W 122°58'0 0.0
2016-Apr-25 18:24N 46°07' W 122°58'0 0.0
2016-Apr-25 17:27N 46°07' W 122°58'0 0.0
2016-Apr-25 16:33N 46°07' W 122°58'0 0.0
2016-Apr-25 15:20N 46°07' W 122°58'0 0.1
2016-Apr-25 14:33N 46°07' W 122°58'0 0.0
2016-Apr-25 13:33N 46°07' W 122°58'0 0.0
2016-Apr-25 12:33N 46°07' W 122°58'0 0.0
2016-Apr-25 11:33N 46°07' W 122°58'0 0.0
2016-Apr-25 10:30N 46°07' W 122°58'0 0.0
2016-Apr-25 09:33N 46°07' W 122°58'0 0.0
2016-Apr-25 08:33N 46°07' W 122°58'0 0.0
2016-Apr-25 07:33N 46°07' W 122°58'0 0.0
2016-Apr-25 06:21N 46°07' W 122°58'0 0.1
2016-Apr-25 05:33N 46°07' W 122°58'0 0.0
2016-Apr-25 04:33N 46°07' W 122°58'0 0.0
2016-Apr-25 03:27N 46°07' W 122°58'0 0.0
2016-Apr-25 02:30N 46°07' W 122°58'0 0.0
2016-Apr-25 01:33N 46°07' W 122°58'0 0.0
2016-Apr-25 00:27N 46°07' W 122°58'0 0.0
2016-Apr-24 23:30N 46°07' W 122°58'0 0.0
2016-Apr-24 22:27N 46°07' W 122°58'0 0.0
2016-Apr-24 21:33N 46°07' W 122°58'0 0.0
2016-Apr-24 20:18N 46°07' W 122°58'0 0.0
2016-Apr-24 19:27N 46°07' W 122°58'0 0.0
2016-Apr-24 18:30N 46°07' W 122°58'0 0.0
2016-Apr-24 17:33N 46°07' W 122°58'0 0.0
2016-Apr-24 16:30N 46°07' W 122°58'0 0.0
2016-Apr-24 15:33N 46°07' W 122°58'0 0.0
2016-Apr-24 14:33N 46°07' W 122°58'0 0.0
2016-Apr-24 13:24N 46°07' W 122°58'0 0.0
2016-Apr-24 12:30N 46°07' W 122°58'0 0.0
2016-Apr-24 11:33N 46°07' W 122°58'0 0.0
2016-Apr-24 10:30N 46°07' W 122°58'0 0.0
2016-Apr-24 09:33N 46°07' W 122°58'0 0.0
2016-Apr-24 08:18N 46°07' W 122°58'0 0.0
2016-Apr-24 07:27N 46°07' W 122°58'0 0.0
2016-Apr-24 06:33N 46°07' W 122°58'0 0.0
2016-Apr-24 05:24N 46°07' W 122°58'0 0.0
2016-Apr-24 04:30N 46°07' W 122°58'0 0.0
2016-Apr-24 03:30N 46°07' W 122°58'0 0.0
2016-Apr-24 02:33N 46°07' W 122°58'0 0.0
2016-Apr-24 01:30N 46°07' W 122°58'0 0.0
2016-Apr-24 00:33N 46°07' W 122°58'0 0.0
2016-Apr-23 23:30N 46°07' W 122°58'0 0.0
2016-Apr-23 22:27N 46°07' W 122°58'0 0.0
2016-Apr-23 21:33N 46°07' W 122°58'0 0.0
2016-Apr-23 20:30N 46°07' W 122°58'0 0.0
2016-Apr-23 19:30N 46°07' W 122°58'0 0.0
2016-Apr-23 18:33N 46°07' W 122°58'0 0.0
2016-Apr-23 17:30N 46°07' W 122°58'0 0.0
2016-Apr-23 16:33N 46°07' W 122°58'0 0.0
2016-Apr-23 15:30N 46°07' W 122°58'0 0.0
2016-Apr-23 14:33N 46°07' W 122°58'0 0.0
2016-Apr-23 12:24N 46°07' W 122°58'0 0.5
2016-Apr-23 11:30N 46°07' W 122°58'0 0.0
2016-Apr-23 10:33N 46°07' W 122°58'0 0.0
2016-Apr-23 09:30N 46°07' W 122°58'0 0.0
2016-Apr-23 08:33N 46°07' W 122°58'0 0.0
2016-Apr-23 07:33N 46°07' W 122°58'0 0.0
2016-Apr-23 06:33N 46°07' W 122°58'0 0.0
2016-Apr-23 05:33N 46°07' W 122°58'0 0.0
2016-Apr-23 04:27N 46°07' W 122°58'0 0.0
2016-Apr-23 03:33N 46°07' W 122°58'0 0.0
2016-Apr-23 02:33N 46°07' W 122°58'0 0.0
2016-Apr-23 01:27N 46°07' W 122°58'0 0.0
2016-Apr-23 00:27N 46°07' W 122°58'0 0.0
2016-Apr-22 23:33N 46°07' W 122°58'0 0.0
2016-Apr-22 22:33N 46°07' W 122°58'0 0.0
2016-Apr-22 21:33N 46°07' W 122°58'0 0.0
2016-Apr-22 20:33N 46°07' W 122°58'0 0.0
2016-Apr-22 19:30N 46°07' W 122°58'0 0.0
2016-Apr-22 18:27N 46°07' W 122°58'0 0.0
2016-Apr-22 17:33N 46°07' W 122°58'0 0.0
2016-Apr-22 16:27N 46°07' W 122°58'0 0.0
2016-Apr-22 15:33N 46°07' W 122°58'0 0.0
2016-Apr-22 14:33N 46°07' W 122°58'0 0.0
2016-Apr-22 13:33N 46°07' W 122°58'0 0.0
2016-Apr-22 12:27N 46°07' W 122°58'0 0.0
2016-Apr-22 11:24N 46°07' W 122°58'0 0.0
2016-Apr-22 10:33N 46°07' W 122°58'0 0.0
2016-Apr-22 09:33N 46°07' W 122°58'0 0.0
2016-Apr-22 08:27N 46°07' W 122°58'0 0.0
2016-Apr-22 07:30N 46°07' W 122°58'0 0.0
2016-Apr-22 06:30N 46°07' W 122°58'0 0.0
2016-Apr-22 05:27N 46°07' W 122°58'0 0.0
2016-Apr-22 04:33N 46°07' W 122°58'0 0.0
2016-Apr-22 03:27N 46°07' W 122°58'0 0.0
2016-Apr-22 02:33N 46°07' W 122°58'0 0.0
2016-Apr-22 01:30N 46°07' W 122°58'0 0.0
2016-Apr-22 00:33N 46°07' W 122°58'0 0.0
2016-Apr-21 23:33N 46°07' W 122°58'0 0.0
2016-Apr-21 22:33N 46°07' W 122°58'0 0.0
2016-Apr-21 21:30N 46°07' W 122°58'0 0.0
2016-Apr-21 20:33N 46°07' W 122°58'0 0.0
2016-Apr-21 19:33N 46°07' W 122°58'0 0.0
2016-Apr-21 18:33N 46°07' W 122°58'0 0.0
2016-Apr-21 17:15N 46°07' W 122°58'0 0.0
2016-Apr-21 16:33N 46°07' W 122°58'0 0.0
2016-Apr-21 15:27N 46°07' W 122°58'0 0.0
2016-Apr-21 14:27N 46°07' W 122°58'0 0.0
2016-Apr-21 13:33N 46°07' W 122°58'0 0.0
2016-Apr-21 12:33N 46°07' W 122°58'0 0.0
2016-Apr-21 11:33N 46°07' W 122°58'0 0.0
2016-Apr-21 10:33N 46°07' W 122°58'0 0.0
2016-Apr-21 09:27N 46°07' W 122°58'0 0.0
2016-Apr-21 08:33N 46°07' W 122°58'0 0.0
2016-Apr-21 07:33N 46°07' W 122°58'0 0.0
2016-Apr-21 06:33N 46°07' W 122°58'0 0.0
2016-Apr-21 05:33N 46°07' W 122°58'0 0.0
2016-Apr-21 04:33N 46°07' W 122°58'0 0.0
2016-Apr-21 03:33N 46°07' W 122°58'0 0.0
2016-Apr-21 02:33N 46°07' W 122°58'0 0.0
2016-Apr-21 01:33N 46°07' W 122°58'0 0.0
2016-Apr-21 00:30N 46°07' W 122°58'0 0.0
2016-Apr-20 23:33N 46°07' W 122°58'0 0.0
2016-Apr-20 22:33N 46°07' W 122°58'0 0.0
2016-Apr-20 21:33N 46°07' W 122°58'0 0.0
2016-Apr-20 20:27N 46°07' W 122°58'0 0.0
2016-Apr-20 19:33N 46°07' W 122°58'0 0.0
2016-Apr-20 18:33N 46°07' W 122°58'0 0.0
2016-Apr-20 17:33N 46°07' W 122°58'0 0.0
2016-Apr-20 16:33N 46°07' W 122°58'0 0.0
2016-Apr-20 15:33N 46°07' W 122°58'0 0.0
2016-Apr-20 14:33N 46°07' W 122°58'0 0.0
2016-Apr-20 13:33N 46°07' W 122°58'0 0.0
2016-Apr-20 12:24N 46°07' W 122°58'0 0.0
2016-Apr-20 11:33N 46°07' W 122°58'0 0.0
2016-Apr-20 09:27N 46°07' W 122°58'0 0.0
2016-Apr-20 08:33N 46°07' W 122°58'0 0.0
2016-Apr-20 07:33N 46°07' W 122°58'0 0.0
2016-Apr-20 06:12N 46°07' W 122°58'0 0.0
2016-Apr-20 05:33N 46°07' W 122°58'0 0.0
2016-Apr-20 04:27N 46°07' W 122°58'0 0.0
2016-Apr-20 03:30N 46°07' W 122°58'0 0.0
2016-Apr-20 02:33N 46°07' W 122°58'0 0.0
2016-Apr-20 01:27N 46°07' W 122°58'0 0.0
2016-Apr-20 00:33N 46°07' W 122°58'0 0.0
2016-Apr-19 23:30N 46°07' W 122°58'0 0.0
2016-Apr-19 22:33N 46°07' W 122°58'0 0.0
2016-Apr-19 21:27N 46°07' W 122°58'0 0.0
2016-Apr-19 20:33N 46°07' W 122°58'0 0.0
2016-Apr-19 19:33N 46°07' W 122°58'0 0.0
2016-Apr-19 18:33N 46°07' W 122°58'0 0.0
2016-Apr-19 17:33N 46°07' W 122°58'7 6.8
2016-Apr-19 16:33N 46°11' W 123°06'9 9.4
2016-Apr-19 15:33N 46°09' W 123°19'8 8.4
2016-Apr-19 14:34N 46°15' W 123°27'1110.6
2016-Apr-19 13:34N 46°15' W 123°42'10 9.7
2016-Apr-19 12:34N 46°12' W 123°55'8 8.4
2016-Apr-19 11:33N 46°14' W 124°07'1110.7
2016-Apr-19 10:33N 46°12' W 124°22'3 3.2
2016-Apr-19 09:33N 46°11' W 124°27'9 9.0
2016-Apr-19 08:33N 46°13' W 124°39'1110.8
2016-Apr-19 07:33N 46°11' W 124°54'1211.5
2016-Apr-19 06:33N 46°14' W 125°10'1111.1
2016-Apr-19 05:33N 46°14' W 125°26'7 7.2
2016-Apr-19 04:33N 46°11' W 125°36'1010.1
2016-Apr-19 03:33N 46°18' W 125°47'1211.5
2016-Apr-19 02:33N 46°13' W 126°01'1211.6
2016-Apr-19 01:33N 46°10' W 126°17'9 8.6
2016-Apr-19 00:33N 46°11' W 126°30'1311.6
2016-Apr-18 23:24N 46°12' W 126°49'2211.6
2016-Apr-18 21:30N 46°12' W 127°21'  

Dump ship's entire track history